sensor_id;sensor_type;location;lat;lon;timestamp;pressure;altitude;pressure_sealevel;temperature;humidity
55301;BME280;58302;51.446;-2.000;2023-05-21T00:01:18;101423.22;;;7.23;100.00
55301;BME280;58302;51.446;-2.000;2023-05-21T00:03:44;101429.41;;;7.05;100.00
55301;BME280;58302;51.446;-2.000;2023-05-21T00:06:14;101429.28;;;6.86;100.00
55301;BME280;58302;51.446;-2.000;2023-05-21T00:08:41;101426.66;;;6.73;100.00
55301;BME280;58302;51.446;-2.000;2023-05-21T00:11:08;101434.84;;;6.60;100.00
55301;BME280;58302;51.446;-2.000;2023-05-21T00:13:34;101435.69;;;6.47;100.00
55301;BME280;58302;51.446;-2.000;2023-05-21T00:16:00;101421.44;;;6.33;100.00
55301;BME280;58302;51.446;-2.000;2023-05-21T00:18:26;101432.91;;;6.22;100.00
55301;BME280;58302;51.446;-2.000;2023-05-21T00:20:52;101439.13;;;6.10;100.00
55301;BME280;58302;51.446;-2.000;2023-05-21T00:23:18;101447.06;;;6.04;100.00
55301;BME280;58302;51.446;-2.000;2023-05-21T00:25:44;101444.56;;;5.96;100.00
55301;BME280;58302;51.446;-2.000;2023-05-21T00:28:11;101439.56;;;5.87;100.00
55301;BME280;58302;51.446;-2.000;2023-05-21T00:30:37;101442.50;;;5.78;100.00
55301;BME280;58302;51.446;-2.000;2023-05-21T00:33:04;101435.44;;;5.71;100.00
55301;BME280;58302;51.446;-2.000;2023-05-21T00:35:30;101448.31;;;5.69;100.00
55301;BME280;58302;51.446;-2.000;2023-05-21T00:37:57;101435.88;;;5.68;100.00
55301;BME280;58302;51.446;-2.000;2023-05-21T00:40:23;101443.31;;;5.66;100.00
55301;BME280;58302;51.446;-2.000;2023-05-21T00:42:49;101438.75;;;5.60;100.00
55301;BME280;58302;51.446;-2.000;2023-05-21T00:45:16;101446.25;;;5.58;100.00
55301;BME280;58302;51.446;-2.000;2023-05-21T00:47:42;101452.69;;;5.50;100.00
55301;BME280;58302;51.446;-2.000;2023-05-21T00:50:09;101436.91;;;5.40;100.00
55301;BME280;58302;51.446;-2.000;2023-05-21T00:52:36;101441.88;;;5.37;100.00
55301;BME280;58302;51.446;-2.000;2023-05-21T00:55:07;101443.34;;;5.39;100.00
55301;BME280;58302;51.446;-2.000;2023-05-21T00:57:34;101448.09;;;5.31;100.00
55301;BME280;58302;51.446;-2.000;2023-05-21T01:00:02;101446.44;;;5.23;100.00
55301;BME280;58302;51.446;-2.000;2023-05-21T01:02:29;101452.66;;;5.17;100.00
55301;BME280;58302;51.446;-2.000;2023-05-21T01:04:59;101458.84;;;5.11;100.00
55301;BME280;58302;51.446;-2.000;2023-05-21T01:07:25;101453.66;;;5.09;100.00
55301;BME280;58302;51.446;-2.000;2023-05-21T01:09:51;101453.25;;;5.06;100.00
55301;BME280;58302;51.446;-2.000;2023-05-21T01:12:19;101449.09;;;4.96;100.00
55301;BME280;58302;51.446;-2.000;2023-05-21T01:14:46;101449.91;;;4.97;100.00
55301;BME280;58302;51.446;-2.000;2023-05-21T01:17:13;101449.25;;;4.88;100.00
55301;BME280;58302;51.446;-2.000;2023-05-21T01:19:40;101451.78;;;4.96;100.00
55301;BME280;58302;51.446;-2.000;2023-05-21T01:22:11;101455.31;;;5.03;100.00
55301;BME280;58302;51.446;-2.000;2023-05-21T01:24:38;101458.41;;;5.00;100.00
55301;BME280;58302;51.446;-2.000;2023-05-21T01:27:05;101455.72;;;5.00;100.00
55301;BME280;58302;51.446;-2.000;2023-05-21T01:29:32;101466.69;;;4.99;100.00
55301;BME280;58302;51.446;-2.000;2023-05-21T01:34:55;101456.34;;;5.16;100.00
55301;BME280;58302;51.446;-2.000;2023-05-21T01:40:04;101442.91;;;5.29;100.00
55301;BME280;58302;51.446;-2.000;2023-05-21T01:42:36;101434.63;;;5.17;100.00
55301;BME280;58302;51.446;-2.000;2023-05-21T01:45:04;101440.56;;;4.99;100.00
55301;BME280;58302;51.446;-2.000;2023-05-21T01:47:34;101431.81;;;4.78;100.00
55301;BME280;58302;51.446;-2.000;2023-05-21T01:50:03;101436.56;;;4.62;100.00
55301;BME280;58302;51.446;-2.000;2023-05-21T01:52:29;101433.19;;;4.47;100.00
55301;BME280;58302;51.446;-2.000;2023-05-21T01:54:56;101430.88;;;4.44;100.00
55301;BME280;58302;51.446;-2.000;2023-05-21T01:57:22;101427.13;;;4.38;100.00
55301;BME280;58302;51.446;-2.000;2023-05-21T01:59:49;101420.44;;;4.28;100.00
55301;BME280;58302;51.446;-2.000;2023-05-21T02:02:18;101421.25;;;4.21;100.00
55301;BME280;58302;51.446;-2.000;2023-05-21T02:04:44;101421.22;;;4.15;100.00
55301;BME280;58302;51.446;-2.000;2023-05-21T02:07:11;101429.50;;;4.13;100.00
55301;BME280;58302;51.446;-2.000;2023-05-21T02:09:39;101427.44;;;4.15;100.00
55301;BME280;58302;51.446;-2.000;2023-05-21T02:12:08;101435.63;;;4.35;100.00
55301;BME280;58302;51.446;-2.000;2023-05-21T02:14:34;101437.63;;;4.74;100.00
55301;BME280;58302;51.446;-2.000;2023-05-21T02:17:02;101434.59;;;5.11;100.00
55301;BME280;58302;51.446;-2.000;2023-05-21T02:19:28;101440.63;;;5.13;100.00
55301;BME280;58302;51.446;-2.000;2023-05-21T02:21:54;101438.94;;;5.05;100.00
55301;BME280;58302;51.446;-2.000;2023-05-21T02:24:20;101439.16;;;5.10;100.00
55301;BME280;58302;51.446;-2.000;2023-05-21T02:26:46;101446.00;;;5.06;100.00
55301;BME280;58302;51.446;-2.000;2023-05-21T02:29:14;101443.75;;;5.29;100.00
55301;BME280;58302;51.446;-2.000;2023-05-21T02:31:44;101438.78;;;5.33;100.00
55301;BME280;58302;51.446;-2.000;2023-05-21T02:34:12;101435.25;;;5.39;100.00
55301;BME280;58302;51.446;-2.000;2023-05-21T02:36:38;101423.84;;;5.31;100.00
55301;BME280;58302;51.446;-2.000;2023-05-21T02:39:06;101435.44;;;5.38;100.00
55301;BME280;58302;51.446;-2.000;2023-05-21T02:41:32;101438.97;;;5.38;100.00
55301;BME280;58302;51.446;-2.000;2023-05-21T02:43:58;101435.44;;;5.38;100.00
55301;BME280;58302;51.446;-2.000;2023-05-21T02:46:25;101427.59;;;5.49;100.00
55301;BME280;58302;51.446;-2.000;2023-05-21T02:48:52;101433.78;;;5.43;100.00
55301;BME280;58302;51.446;-2.000;2023-05-21T02:51:18;101422.00;;;5.44;100.00
55301;BME280;58302;51.446;-2.000;2023-05-21T02:53:44;101426.53;;;5.37;100.00
55301;BME280;58302;51.446;-2.000;2023-05-21T02:56:10;101432.34;;;5.34;100.00
55301;BME280;58302;51.446;-2.000;2023-05-21T02:58:37;101423.84;;;5.37;100.00
55301;BME280;58302;51.446;-2.000;2023-05-21T03:01:03;101417.22;;;5.46;100.00
55301;BME280;58302;51.446;-2.000;2023-05-21T03:03:29;101426.56;;;5.50;100.00
55301;BME280;58302;51.446;-2.000;2023-05-21T03:05:56;101435.03;;;5.54;100.00
55301;BME280;58302;51.446;-2.000;2023-05-21T03:08:23;101427.38;;;5.58;100.00
55301;BME280;58302;51.446;-2.000;2023-05-21T03:10:51;101429.88;;;5.39;100.00
55301;BME280;58302;51.446;-2.000;2023-05-21T03:13:18;101441.25;;;5.35;100.00
55301;BME280;58302;51.446;-2.000;2023-05-21T03:15:44;101415.75;;;5.17;100.00
55301;BME280;58302;51.446;-2.000;2023-05-21T03:18:11;101421.53;;;5.08;100.00
55301;BME280;58302;51.446;-2.000;2023-05-21T03:20:37;101415.91;;;4.89;100.00
55301;BME280;58302;51.446;-2.000;2023-05-21T03:23:08;101423.09;;;4.69;100.00
55301;BME280;58302;51.446;-2.000;2023-05-21T03:25:40;101415.84;;;4.63;100.00
55301;BME280;58302;51.446;-2.000;2023-05-21T03:28:06;101416.91;;;4.68;100.00
55301;BME280;58302;51.446;-2.000;2023-05-21T03:30:35;101423.72;;;4.64;100.00
55301;BME280;58302;51.446;-2.000;2023-05-21T03:33:03;101416.00;;;4.55;100.00
55301;BME280;58302;51.446;-2.000;2023-05-21T03:35:29;101412.03;;;4.44;100.00
55301;BME280;58302;51.446;-2.000;2023-05-21T03:37:55;101423.31;;;4.19;100.00
55301;BME280;58302;51.446;-2.000;2023-05-21T03:40:23;101422.56;;;3.97;100.00
55301;BME280;58302;51.446;-2.000;2023-05-21T03:42:50;101425.34;;;3.76;100.00
55301;BME280;58302;51.446;-2.000;2023-05-21T03:45:17;101409.22;;;3.48;100.00
55301;BME280;58302;51.446;-2.000;2023-05-21T03:47:43;101420.69;;;3.35;100.00
55301;BME280;58302;51.446;-2.000;2023-05-21T03:50:09;101424.47;;;3.20;100.00
55301;BME280;58302;51.446;-2.000;2023-05-21T03:52:37;101415.59;;;3.19;100.00
55301;BME280;58302;51.446;-2.000;2023-05-21T03:55:03;101401.09;;;3.41;100.00
55301;BME280;58302;51.446;-2.000;2023-05-21T03:57:29;101409.34;;;3.40;100.00
55301;BME280;58302;51.446;-2.000;2023-05-21T03:59:55;101403.00;;;3.20;100.00
55301;BME280;58302;51.446;-2.000;2023-05-21T04:02:25;101407.84;;;3.09;100.00
55301;BME280;58302;51.446;-2.000;2023-05-21T04:04:56;101411.22;;;2.97;100.00
55301;BME280;58302;51.446;-2.000;2023-05-21T04:07:22;101420.13;;;2.97;100.00
55301;BME280;58302;51.446;-2.000;2023-05-21T04:09:48;101420.16;;;3.47;100.00
55301;BME280;58302;51.446;-2.000;2023-05-21T04:12:15;101420.88;;;3.62;100.00
55301;BME280;58302;51.446;-2.000;2023-05-21T04:14:46;101422.34;;;3.64;100.00
55301;BME280;58302;51.446;-2.000;2023-05-21T04:17:13;101410.91;;;3.56;100.00
55301;BME280;58302;51.446;-2.000;2023-05-21T04:19:38;101417.22;;;3.41;100.00
55301;BME280;58302;51.446;-2.000;2023-05-21T04:22:05;101422.28;;;3.30;100.00
55301;BME280;58302;51.446;-2.000;2023-05-21T04:24:34;101415.97;;;3.16;100.00
55301;BME280;58302;51.446;-2.000;2023-05-21T04:27:04;101414.50;;;3.13;100.00
55301;BME280;58302;51.446;-2.000;2023-05-21T04:29:30;101398.44;;;3.20;100.00
55301;BME280;58302;51.446;-2.000;2023-05-21T04:31:56;101412.75;;;3.27;100.00
55301;BME280;58302;51.446;-2.000;2023-05-21T04:34:27;101410.78;;;3.14;100.00
55301;BME280;58302;51.446;-2.000;2023-05-21T04:36:54;101409.69;;;3.09;100.00
55301;BME280;58302;51.446;-2.000;2023-05-21T04:39:26;101412.75;;;3.06;100.00
55301;BME280;58302;51.446;-2.000;2023-05-21T04:41:58;101410.38;;;2.96;100.00
55301;BME280;58302;51.446;-2.000;2023-05-21T04:44:24;101408.38;;;2.98;100.00
55301;BME280;58302;51.446;-2.000;2023-05-21T04:46:57;101402.22;;;3.04;100.00
55301;BME280;58302;51.446;-2.000;2023-05-21T04:49:23;101398.75;;;3.10;100.00
55301;BME280;58302;51.446;-2.000;2023-05-21T04:51:53;101410.34;;;3.11;100.00
55301;BME280;58302;51.446;-2.000;2023-05-21T04:54:22;101405.22;;;3.16;100.00
55301;BME280;58302;51.446;-2.000;2023-05-21T04:56:49;101408.41;;;3.26;100.00
55301;BME280;58302;51.446;-2.000;2023-05-21T04:59:15;101402.63;;;3.29;100.00
55301;BME280;58302;51.446;-2.000;2023-05-21T05:01:43;101412.44;;;3.65;100.00
55301;BME280;58302;51.446;-2.000;2023-05-21T05:04:09;101394.44;;;4.00;100.00
55301;BME280;58302;51.446;-2.000;2023-05-21T05:06:35;101404.50;;;4.26;100.00
55301;BME280;58302;51.446;-2.000;2023-05-21T05:09:01;101414.38;;;4.60;100.00
55301;BME280;58302;51.446;-2.000;2023-05-21T05:11:31;101410.88;;;4.66;100.00
55301;BME280;58302;51.446;-2.000;2023-05-21T05:14:01;101414.00;;;4.76;100.00
55301;BME280;58302;51.446;-2.000;2023-05-21T05:16:27;101414.47;;;4.93;100.00
55301;BME280;58302;51.446;-2.000;2023-05-21T05:18:54;101422.97;;;5.10;100.00
55301;BME280;58302;51.446;-2.000;2023-05-21T05:21:21;101411.38;;;5.16;100.00
55301;BME280;58302;51.446;-2.000;2023-05-21T05:23:48;101407.66;;;5.24;100.00
55301;BME280;58302;51.446;-2.000;2023-05-21T05:26:16;101419.28;;;5.44;100.00
55301;BME280;58302;51.446;-2.000;2023-05-21T05:28:42;101407.25;;;5.53;100.00
55301;BME280;58302;51.446;-2.000;2023-05-21T05:31:10;101403.09;;;5.58;100.00
55301;BME280;58302;51.446;-2.000;2023-05-21T05:33:37;101402.25;;;5.77;100.00
55301;BME280;58302;51.446;-2.000;2023-05-21T05:36:04;101402.47;;;5.95;100.00
55301;BME280;58302;51.446;-2.000;2023-05-21T05:38:31;101397.84;;;6.09;100.00
55301;BME280;58302;51.446;-2.000;2023-05-21T05:40:59;101395.56;;;6.13;100.00
55301;BME280;58302;51.446;-2.000;2023-05-21T05:43:27;101387.66;;;6.18;100.00
55301;BME280;58302;51.446;-2.000;2023-05-21T05:45:54;101384.50;;;6.27;100.00
55301;BME280;58302;51.446;-2.000;2023-05-21T05:48:21;101383.59;;;6.40;100.00
55301;BME280;58302;51.446;-2.000;2023-05-21T05:50:48;101375.47;;;6.47;100.00
55301;BME280;58302;51.446;-2.000;2023-05-21T05:53:14;101384.34;;;6.60;100.00
55301;BME280;58302;51.446;-2.000;2023-05-21T05:55:40;101374.72;;;6.71;100.00
55301;BME280;58302;51.446;-2.000;2023-05-21T05:58:07;101376.34;;;6.79;100.00
55301;BME280;58302;51.446;-2.000;2023-05-21T06:00:33;101371.94;;;6.84;100.00
55301;BME280;58302;51.446;-2.000;2023-05-21T06:02:59;101373.88;;;7.02;100.00
55301;BME280;58302;51.446;-2.000;2023-05-21T06:05:25;101380.69;;;7.11;100.00
55301;BME280;58302;51.446;-2.000;2023-05-21T06:07:51;101377.09;;;7.18;100.00
55301;BME280;58302;51.446;-2.000;2023-05-21T06:10:17;101372.47;;;7.25;100.00
55301;BME280;58302;51.446;-2.000;2023-05-21T06:12:45;101375.50;;;7.35;100.00
55301;BME280;58302;51.446;-2.000;2023-05-21T06:15:12;101376.88;;;7.44;100.00
55301;BME280;58302;51.446;-2.000;2023-05-21T06:17:39;101365.56;;;7.54;100.00
55301;BME280;58302;51.446;-2.000;2023-05-21T06:20:07;101376.72;;;7.64;100.00
55301;BME280;58302;51.446;-2.000;2023-05-21T06:22:33;101387.00;;;7.74;100.00
55301;BME280;58302;51.446;-2.000;2023-05-21T06:24:59;101384.03;;;7.82;100.00
55301;BME280;58302;51.446;-2.000;2023-05-21T06:27:25;101386.56;;;7.95;100.00
55301;BME280;58302;51.446;-2.000;2023-05-21T06:29:51;101379.59;;;8.06;100.00
55301;BME280;58302;51.446;-2.000;2023-05-21T06:32:17;101387.44;;;8.14;100.00
55301;BME280;58302;51.446;-2.000;2023-05-21T06:34:46;101393.50;;;8.28;100.00
55301;BME280;58302;51.446;-2.000;2023-05-21T06:37:12;101386.13;;;8.53;100.00
55301;BME280;58302;51.446;-2.000;2023-05-21T06:39:37;101384.69;;;9.22;100.00
55301;BME280;58302;51.446;-2.000;2023-05-21T06:42:04;101386.00;;;10.14;100.00
55301;BME280;58302;51.446;-2.000;2023-05-21T06:44:30;101378.63;;;10.95;100.00
55301;BME280;58302;51.446;-2.000;2023-05-21T06:46:56;101367.69;;;11.23;100.00
55301;BME280;58302;51.446;-2.000;2023-05-21T06:49:22;101383.66;;;11.53;100.00
55301;BME280;58302;51.446;-2.000;2023-05-21T06:51:48;101390.34;;;11.79;100.00
55301;BME280;58302;51.446;-2.000;2023-05-21T06:54:14;101386.75;;;12.34;100.00
55301;BME280;58302;51.446;-2.000;2023-05-21T06:56:40;101380.91;;;13.02;100.00
55301;BME280;58302;51.446;-2.000;2023-05-21T06:59:05;101381.38;;;13.21;100.00
55301;BME280;58302;51.446;-2.000;2023-05-21T07:01:31;101377.69;;;13.32;100.00
55301;BME280;58302;51.446;-2.000;2023-05-21T07:03:58;101381.59;;;13.14;100.00
55301;BME280;58302;51.446;-2.000;2023-05-21T07:06:24;101388.88;;;13.03;100.00
55301;BME280;58302;51.446;-2.000;2023-05-21T07:08:50;101376.13;;;13.41;100.00
55301;BME280;58302;51.446;-2.000;2023-05-21T07:11:16;101380.53;;;13.89;100.00
55301;BME280;58302;51.446;-2.000;2023-05-21T07:13:42;101369.09;;;14.55;100.00
55301;BME280;58302;51.446;-2.000;2023-05-21T07:16:08;101368.06;;;14.92;100.00
55301;BME280;58302;51.446;-2.000;2023-05-21T07:18:34;101370.03;;;15.17;100.00
55301;BME280;58302;51.446;-2.000;2023-05-21T07:21:00;101367.81;;;15.65;100.00
55301;BME280;58302;51.446;-2.000;2023-05-21T07:23:27;101368.28;;;15.97;100.00
55301;BME280;58302;51.446;-2.000;2023-05-21T07:25:52;101383.41;;;15.49;100.00
55301;BME280;58302;51.446;-2.000;2023-05-21T07:28:19;101378.25;;;15.63;100.00
55301;BME280;58302;51.446;-2.000;2023-05-21T07:30:45;101364.47;;;15.93;100.00
55301;BME280;58302;51.446;-2.000;2023-05-21T07:33:11;101377.47;;;16.37;100.00
55301;BME280;58302;51.446;-2.000;2023-05-21T07:35:37;101372.47;;;16.54;100.00
55301;BME280;58302;51.446;-2.000;2023-05-21T07:38:03;101376.03;;;16.50;100.00
55301;BME280;58302;51.446;-2.000;2023-05-21T07:40:30;101370.53;;;15.80;100.00
55301;BME280;58302;51.446;-2.000;2023-05-21T07:42:56;101368.06;;;15.53;100.00
55301;BME280;58302;51.446;-2.000;2023-05-21T07:45:22;101370.53;;;15.70;100.00
55301;BME280;58302;51.446;-2.000;2023-05-21T07:47:49;101380.94;;;15.93;100.00
55301;BME280;58302;51.446;-2.000;2023-05-21T07:50:15;101377.94;;;14.98;100.00
55301;BME280;58302;51.446;-2.000;2023-05-21T07:52:41;101378.22;;;15.47;100.00
55301;BME280;58302;51.446;-2.000;2023-05-21T07:55:08;101388.34;;;15.52;100.00
55301;BME280;58302;51.446;-2.000;2023-05-21T07:57:34;101376.81;;;15.60;100.00
55301;BME280;58302;51.446;-2.000;2023-05-21T08:00:01;101379.75;;;16.15;100.00
55301;BME280;58302;51.446;-2.000;2023-05-21T08:02:28;101387.91;;;16.30;100.00
55301;BME280;58302;51.446;-2.000;2023-05-21T08:04:54;101381.78;;;15.68;100.00
55301;BME280;58302;51.446;-2.000;2023-05-21T08:07:20;101379.84;;;15.43;100.00
55301;BME280;58302;51.446;-2.000;2023-05-21T08:09:46;101381.78;;;15.58;100.00
55301;BME280;58302;51.446;-2.000;2023-05-21T08:12:12;101374.38;;;15.74;100.00
55301;BME280;58302;51.446;-2.000;2023-05-21T08:14:41;101371.03;;;15.92;100.00
55301;BME280;58302;51.446;-2.000;2023-05-21T08:17:10;101380.50;;;16.36;100.00
55301;BME280;58302;51.446;-2.000;2023-05-21T08:19:36;101366.03;;;16.74;100.00
55301;BME280;58302;51.446;-2.000;2023-05-21T08:22:02;101363.72;;;16.92;100.00
55301;BME280;58302;51.446;-2.000;2023-05-21T08:24:28;101358.94;;;16.63;100.00
55301;BME280;58302;51.446;-2.000;2023-05-21T08:26:54;101363.47;;;16.39;100.00
55301;BME280;58302;51.446;-2.000;2023-05-21T08:29:20;101366.19;;;16.49;100.00
55301;BME280;58302;51.446;-2.000;2023-05-21T08:31:46;101369.06;;;17.12;100.00
55301;BME280;58302;51.446;-2.000;2023-05-21T08:34:12;101369.34;;;17.16;100.00
55301;BME280;58302;51.446;-2.000;2023-05-21T08:36:38;101365.19;;;16.79;100.00
55301;BME280;58302;51.446;-2.000;2023-05-21T08:39:07;101372.59;;;17.18;100.00
55301;BME280;58302;51.446;-2.000;2023-05-21T08:41:34;101374.16;;;17.92;100.00
55301;BME280;58302;51.446;-2.000;2023-05-21T08:44:01;101371.00;;;18.65;100.00
55301;BME280;58302;51.446;-2.000;2023-05-21T08:46:32;101359.09;;;18.51;100.00
55301;BME280;58302;51.446;-2.000;2023-05-21T08:49:02;101373.66;;;18.33;100.00
55301;BME280;58302;51.446;-2.000;2023-05-21T08:51:29;101371.78;;;18.28;100.00
55301;BME280;58302;51.446;-2.000;2023-05-21T08:53:56;101371.09;;;18.17;100.00
55301;BME280;58302;51.446;-2.000;2023-05-21T08:56:22;101363.34;;;18.43;100.00
55301;BME280;58302;51.446;-2.000;2023-05-21T08:58:50;101366.28;;;18.90;100.00
55301;BME280;58302;51.446;-2.000;2023-05-21T09:01:16;101369.94;;;18.85;100.00
55301;BME280;58302;51.446;-2.000;2023-05-21T09:03:44;101376.53;;;18.65;100.00
55301;BME280;58302;51.446;-2.000;2023-05-21T09:06:11;101365.13;;;18.10;100.00
55301;BME280;58302;51.446;-2.000;2023-05-21T09:08:42;101378.22;;;18.42;100.00
55301;BME280;58302;51.446;-2.000;2023-05-21T09:11:08;101384.78;;;18.47;100.00
55301;BME280;58302;51.446;-2.000;2023-05-21T09:13:36;101377.41;;;18.61;100.00
55301;BME280;58302;51.446;-2.000;2023-05-21T09:16:04;101375.91;;;18.74;100.00
55301;BME280;58302;51.446;-2.000;2023-05-21T09:18:31;101376.22;;;18.48;100.00
55301;BME280;58302;51.446;-2.000;2023-05-21T09:20:58;101374.34;;;18.62;100.00
55301;BME280;58302;51.446;-2.000;2023-05-21T09:23:27;101372.00;;;19.12;100.00
55301;BME280;58302;51.446;-2.000;2023-05-21T09:25:53;101360.88;;;19.50;100.00
55301;BME280;58302;51.446;-2.000;2023-05-21T09:28:19;101364.03;;;19.11;100.00
55301;BME280;58302;51.446;-2.000;2023-05-21T09:30:51;101355.66;;;19.16;100.00
55301;BME280;58302;51.446;-2.000;2023-05-21T09:33:27;101362.03;;;18.98;100.00
55301;BME280;58302;51.446;-2.000;2023-05-21T09:35:56;101353.63;;;19.54;100.00
55301;BME280;58302;51.446;-2.000;2023-05-21T09:38:24;101344.13;;;20.07;100.00
55301;BME280;58302;51.446;-2.000;2023-05-21T09:40:53;101347.00;;;20.65;100.00
55301;BME280;58302;51.446;-2.000;2023-05-21T09:43:21;101346.88;;;20.70;100.00
55301;BME280;58302;51.446;-2.000;2023-05-21T09:45:54;101345.16;;;21.19;100.00
55301;BME280;58302;51.446;-2.000;2023-05-21T09:51:15;101336.81;;;21.64;100.00
55301;BME280;58302;51.446;-2.000;2023-05-21T09:54:02;101343.44;;;20.37;100.00
55301;BME280;58302;51.446;-2.000;2023-05-21T09:56:28;101332.53;;;20.46;100.00
55301;BME280;58302;51.446;-2.000;2023-05-21T09:58:56;101343.91;;;19.89;100.00
55301;BME280;58302;51.446;-2.000;2023-05-21T10:01:26;101337.84;;;19.27;100.00
55301;BME280;58302;51.446;-2.000;2023-05-21T10:03:54;101350.25;;;18.35;100.00
55301;BME280;58302;51.446;-2.000;2023-05-21T10:06:28;101345.59;;;18.92;100.00
55301;BME280;58302;51.446;-2.000;2023-05-21T10:08:58;101341.69;;;19.45;100.00
55301;BME280;58302;51.446;-2.000;2023-05-21T10:11:26;101327.16;;;19.86;100.00
55301;BME280;58302;51.446;-2.000;2023-05-21T10:14:15;101326.47;;;19.47;100.00
55301;BME280;58302;51.446;-2.000;2023-05-21T10:16:42;101331.91;;;20.21;100.00
55301;BME280;58302;51.446;-2.000;2023-05-21T10:19:09;101313.81;;;21.24;100.00
55301;BME280;58302;51.446;-2.000;2023-05-21T10:21:36;101322.91;;;21.87;100.00
55301;BME280;58302;51.446;-2.000;2023-05-21T10:24:02;101322.59;;;21.26;100.00
55301;BME280;58302;51.446;-2.000;2023-05-21T10:26:29;101316.56;;;21.24;100.00
55301;BME280;58302;51.446;-2.000;2023-05-21T10:28:56;101334.97;;;21.91;100.00
55301;BME280;58302;51.446;-2.000;2023-05-21T10:31:25;101324.22;;;22.29;100.00
55301;BME280;58302;51.446;-2.000;2023-05-21T10:33:52;101316.75;;;22.38;100.00
55301;BME280;58302;51.446;-2.000;2023-05-21T10:36:18;101305.34;;;21.82;100.00
55301;BME280;58302;51.446;-2.000;2023-05-21T10:38:45;101304.34;;;21.16;100.00
55301;BME280;58302;51.446;-2.000;2023-05-21T10:41:14;101306.97;;;20.76;100.00
55301;BME280;58302;51.446;-2.000;2023-05-21T10:44:16;101315.44;;;21.25;100.00
55301;BME280;58302;51.446;-2.000;2023-05-21T10:49:37;101302.09;;;22.55;100.00
55301;BME280;58302;51.446;-2.000;2023-05-21T11:05:01;101293.53;;;21.06;100.00
55301;BME280;58302;51.446;-2.000;2023-05-21T11:07:56;101282.72;;;21.18;100.00
55301;BME280;58302;51.446;-2.000;2023-05-21T11:10:38;101281.28;;;20.98;100.00
55301;BME280;58302;51.446;-2.000;2023-05-21T11:21:06;101263.88;;;23.21;100.00
55301;BME280;58302;51.446;-2.000;2023-05-21T11:23:52;101274.84;;;22.74;100.00
55301;BME280;58302;51.446;-2.000;2023-05-21T11:26:23;101278.91;;;22.25;100.00
55301;BME280;58302;51.446;-2.000;2023-05-21T11:31:31;101263.94;;;22.34;100.00
55301;BME280;58302;51.446;-2.000;2023-05-21T11:34:22;101272.50;;;21.98;100.00
55301;BME280;58302;51.446;-2.000;2023-05-21T11:39:52;101260.25;;;23.76;97.57
55301;BME280;58302;51.446;-2.000;2023-05-21T11:42:33;101245.50;;;24.56;90.84
55301;BME280;58302;51.446;-2.000;2023-05-21T11:45:01;101248.06;;;23.60;94.17
55301;BME280;58302;51.446;-2.000;2023-05-21T11:47:28;101259.88;;;22.41;99.85
55301;BME280;58302;51.446;-2.000;2023-05-21T11:49:56;101254.00;;;22.16;100.00
55301;BME280;58302;51.446;-2.000;2023-05-21T11:52:22;101255.81;;;22.64;100.00
55301;BME280;58302;51.446;-2.000;2023-05-21T11:54:52;101258.69;;;22.85;100.00
55301;BME280;58302;51.446;-2.000;2023-05-21T11:57:20;101246.69;;;23.36;99.96
55301;BME280;58302;51.446;-2.000;2023-05-21T11:59:48;101248.19;;;23.72;96.34
55301;BME280;58302;51.446;-2.000;2023-05-21T12:02:17;101247.38;;;24.01;90.32
55301;BME280;58302;51.446;-2.000;2023-05-21T12:04:45;101241.78;;;24.52;89.90
55301;BME280;58302;51.446;-2.000;2023-05-21T12:07:13;101243.66;;;24.18;92.04
55301;BME280;58302;51.446;-2.000;2023-05-21T12:09:52;101242.03;;;23.20;96.24
55301;BME280;58302;51.446;-2.000;2023-05-21T12:12:19;101231.78;;;23.50;96.27
55301;BME280;58302;51.446;-2.000;2023-05-21T12:14:48;101241.06;;;23.16;98.35
55301;BME280;58302;51.446;-2.000;2023-05-21T12:17:15;101237.88;;;22.70;100.00
55301;BME280;58302;51.446;-2.000;2023-05-21T12:19:42;101240.47;;;22.75;100.00
55301;BME280;58302;51.446;-2.000;2023-05-21T12:22:08;101239.50;;;22.71;100.00
55301;BME280;58302;51.446;-2.000;2023-05-21T12:24:35;101237.47;;;23.15;100.00
55301;BME280;58302;51.446;-2.000;2023-05-21T12:27:04;101234.81;;;23.74;97.14
55301;BME280;58302;51.446;-2.000;2023-05-21T12:29:38;101236.03;;;24.06;92.08
55301;BME280;58302;51.446;-2.000;2023-05-21T12:32:06;101227.09;;;24.51;92.04
55301;BME280;58302;51.446;-2.000;2023-05-21T12:37:24;101235.09;;;25.68;84.73
55301;BME280;58302;51.446;-2.000;2023-05-21T12:39:52;101228.16;;;25.74;81.78
55301;BME280;58302;51.446;-2.000;2023-05-21T12:42:30;101226.66;;;25.89;79.63
55301;BME280;58302;51.446;-2.000;2023-05-21T12:45:00;101227.00;;;25.75;79.61
55301;BME280;58302;51.446;-2.000;2023-05-21T12:47:27;101226.81;;;26.20;76.02
55301;BME280;58302;51.446;-2.000;2023-05-21T12:49:56;101220.22;;;26.13;71.93
55301;BME280;58302;51.446;-2.000;2023-05-21T12:52:23;101206.53;;;25.10;78.36
55301;BME280;58302;51.446;-2.000;2023-05-21T12:54:51;101219.56;;;25.42;76.88
55301;BME280;58302;51.446;-2.000;2023-05-21T12:57:19;101212.38;;;25.66;78.32
55301;BME280;58302;51.446;-2.000;2023-05-21T12:59:51;101223.50;;;25.90;77.58
55301;BME280;58302;51.446;-2.000;2023-05-21T13:02:28;101219.34;;;25.72;78.38
55301;BME280;58302;51.446;-2.000;2023-05-21T13:05:02;101213.50;;;24.08;85.60
55301;BME280;58302;51.446;-2.000;2023-05-21T13:07:30;101217.16;;;24.00;87.53
55301;BME280;58302;51.446;-2.000;2023-05-21T13:09:57;101216.28;;;24.29;87.71
55301;BME280;58302;51.446;-2.000;2023-05-21T13:12:26;101204.47;;;25.07;83.63
55301;BME280;58302;51.446;-2.000;2023-05-21T13:14:55;101203.69;;;25.55;78.75
55301;BME280;58302;51.446;-2.000;2023-05-21T13:17:22;101207.50;;;25.99;76.99
55301;BME280;58302;51.446;-2.000;2023-05-21T13:20:15;101211.78;;;25.97;78.88